sensor_id;sensor_type;location;lat;lon;timestamp;pressure;altitude;pressure_sealevel;temperature;humidity
9462;BME280;4769;42.660;23.262;2023-01-26T00:02:25;94393.03;;;0.77;100.00
9462;BME280;4769;42.660;23.262;2023-01-26T00:04:53;94377.84;;;0.74;100.00
9462;BME280;4769;42.660;23.262;2023-01-26T00:07:19;94386.25;;;0.76;100.00
9462;BME280;4769;42.660;23.262;2023-01-26T00:09:46;94377.94;;;0.80;99.32
9462;BME280;4769;42.660;23.262;2023-01-26T00:12:13;94387.84;;;0.77;99.56
9462;BME280;4769;42.660;23.262;2023-01-26T00:14:39;94395.94;;;0.82;100.00
9462;BME280;4769;42.660;23.262;2023-01-26T00:17:17;94393.44;;;0.88;98.86
9462;BME280;4769;42.660;23.262;2023-01-26T00:19:55;94396.72;;;0.82;98.73
9462;BME280;4769;42.660;23.262;2023-01-26T00:22:23;94404.69;;;0.81;98.88
9462;BME280;4769;42.660;23.262;2023-01-26T00:24:50;94394.91;;;0.68;98.49
9462;BME280;4769;42.660;23.262;2023-01-26T00:27:17;94384.75;;;0.81;98.50
9462;BME280;4769;42.660;23.262;2023-01-26T00:29:44;94365.84;;;0.73;98.72
9462;BME280;4769;42.660;23.262;2023-01-26T00:32:10;94374.88;;;0.77;98.23
9462;BME280;4769;42.660;23.262;2023-01-26T00:34:37;94377.06;;;0.88;98.64
9462;BME280;4769;42.660;23.262;2023-01-26T00:37:05;94369.06;;;0.75;98.05
9462;BME280;4769;42.660;23.262;2023-01-26T00:39:32;94361.81;;;0.70;98.38
9462;BME280;4769;42.660;23.262;2023-01-26T00:41:58;94359.22;;;0.70;98.97
9462;BME280;4769;42.660;23.262;2023-01-26T00:44:40;94364.81;;;0.82;98.63
9462;BME280;4769;42.660;23.262;2023-01-26T00:47:08;94368.16;;;0.68;98.32
9462;BME280;4769;42.660;23.262;2023-01-26T00:49:36;94361.34;;;0.67;98.52
9462;BME280;4769;42.660;23.262;2023-01-26T00:52:05;94349.59;;;0.56;98.51
9462;BME280;4769;42.660;23.262;2023-01-26T00:54:31;94361.34;;;0.67;98.60
9462;BME280;4769;42.660;23.262;2023-01-26T00:56:58;94347.47;;;0.60;99.19
9462;BME280;4769;42.660;23.262;2023-01-26T00:59:25;94351.50;;;0.62;98.93
9462;BME280;4769;42.660;23.262;2023-01-26T01:01:52;94352.94;;;0.79;98.67
9462;BME280;4769;42.660;23.262;2023-01-26T01:04:19;94341.13;;;0.77;97.92
9462;BME280;4769;42.660;23.262;2023-01-26T01:06:46;94337.75;;;0.53;97.70
9462;BME280;4769;42.660;23.262;2023-01-26T01:09:14;94329.94;;;0.62;98.35
9462;BME280;4769;42.660;23.262;2023-01-26T01:11:40;94341.84;;;0.71;97.53
9462;BME280;4769;42.660;23.262;2023-01-26T01:14:08;94334.13;;;0.63;98.57
9462;BME280;4769;42.660;23.262;2023-01-26T01:16:35;94326.78;;;0.52;97.64
9462;BME280;4769;42.660;23.262;2023-01-26T01:19:01;94330.03;;;0.68;97.94
9462;BME280;4769;42.660;23.262;2023-01-26T01:21:28;94322.50;;;0.59;98.15
9462;BME280;4769;42.660;23.262;2023-01-26T01:23:56;94335.66;;;0.72;98.02
9462;BME280;4769;42.660;23.262;2023-01-26T01:26:24;94335.13;;;0.62;97.50
9462;BME280;4769;42.660;23.262;2023-01-26T01:28:52;94334.13;;;0.63;97.26
9462;BME280;4769;42.660;23.262;2023-01-26T01:31:19;94329.13;;;0.61;96.95
9462;BME280;4769;42.660;23.262;2023-01-26T01:33:46;94328.16;;;0.62;97.04
9462;BME280;4769;42.660;23.262;2023-01-26T01:36:15;94332.53;;;0.62;97.01
9462;BME280;4769;42.660;23.262;2023-01-26T01:38:43;94332.97;;;0.65;97.44
9462;BME280;4769;42.660;23.262;2023-01-26T01:41:10;94330.75;;;0.62;97.48
9462;BME280;4769;42.660;23.262;2023-01-26T01:43:40;94322.97;;;0.62;96.34
9462;BME280;4769;42.660;23.262;2023-01-26T01:46:13;94327.97;;;0.64;96.94
9462;BME280;4769;42.660;23.262;2023-01-26T01:48:46;94327.97;;;0.64;96.56
9462;BME280;4769;42.660;23.262;2023-01-26T01:51:19;94320.75;;;0.51;96.64
9462;BME280;4769;42.660;23.262;2023-01-26T01:53:49;94317.59;;;0.41;96.97
9462;BME280;4769;42.660;23.262;2023-01-26T01:56:19;94311.66;;;0.55;97.21
9462;BME280;4769;42.660;23.262;2023-01-26T01:58:51;94316.16;;;0.61;96.44
9462;BME280;4769;42.660;23.262;2023-01-26T02:01:19;94312.63;;;0.54;96.24
9462;BME280;4769;42.660;23.262;2023-01-26T02:03:50;94321.75;;;0.50;96.92
9462;BME280;4769;42.660;23.262;2023-01-26T02:06:20;94313.75;;;0.60;96.83
9462;BME280;4769;42.660;23.262;2023-01-26T02:08:51;94303.38;;;0.60;95.94
9462;BME280;4769;42.660;23.262;2023-01-26T02:11:19;94303.63;;;0.65;96.47
9462;BME280;4769;42.660;23.262;2023-01-26T02:13:50;94291.00;;;0.62;95.49
9462;BME280;4769;42.660;23.262;2023-01-26T02:16:18;94288.19;;;0.48;95.83
9462;BME280;4769;42.660;23.262;2023-01-26T02:18:46;94286.47;;;0.41;96.31
9462;BME280;4769;42.660;23.262;2023-01-26T02:21:15;94282.44;;;0.38;96.41
9462;BME280;4769;42.660;23.262;2023-01-26T02:23:51;94271.75;;;0.42;96.20
9462;BME280;4769;42.660;23.262;2023-01-26T02:26:23;94263.50;;;0.38;96.38
9462;BME280;4769;42.660;23.262;2023-01-26T02:28:52;94259.31;;;0.52;95.79
9462;BME280;4769;42.660;23.262;2023-01-26T02:31:21;94263.63;;;0.45;95.80
9462;BME280;4769;42.660;23.262;2023-01-26T02:33:48;94261.91;;;0.52;95.59
9462;BME280;4769;42.660;23.262;2023-01-26T02:36:17;94261.88;;;0.37;95.73
9462;BME280;4769;42.660;23.262;2023-01-26T02:38:50;94256.13;;;0.50;96.74
9462;BME280;4769;42.660;23.262;2023-01-26T02:41:18;94251.44;;;0.45;96.57
9462;BME280;4769;42.660;23.262;2023-01-26T02:44:01;94252.25;;;0.46;96.96
9462;BME280;4769;42.660;23.262;2023-01-26T02:46:29;94233.13;;;0.47;96.02
9462;BME280;4769;42.660;23.262;2023-01-26T02:48:56;94243.94;;;0.50;96.23
9462;BME280;4769;42.660;23.262;2023-01-26T02:51:37;94238.53;;;0.37;96.72
9462;BME280;4769;42.660;23.262;2023-01-26T02:54:03;94234.44;;;0.28;97.45
9462;BME280;4769;42.660;23.262;2023-01-26T02:56:30;94225.78;;;0.13;97.04
9462;BME280;4769;42.660;23.262;2023-01-26T02:58:56;94232.00;;;0.27;97.31
9462;BME280;4769;42.660;23.262;2023-01-26T03:01:24;94220.72;;;0.19;97.23
9462;BME280;4769;42.660;23.262;2023-01-26T03:03:51;94221.69;;;0.18;97.73
9462;BME280;4769;42.660;23.262;2023-01-26T03:06:17;94221.28;;;0.29;97.37
9462;BME280;4769;42.660;23.262;2023-01-26T03:08:45;94216.34;;;0.34;97.63
9462;BME280;4769;42.660;23.262;2023-01-26T03:11:12;94217.28;;;0.42;96.87
9462;BME280;4769;42.660;23.262;2023-01-26T03:13:38;94208.50;;;0.43;96.87
9462;BME280;4769;42.660;23.262;2023-01-26T03:16:06;94209.28;;;0.28;96.68
9462;BME280;4769;42.660;23.262;2023-01-26T03:18:35;94208.84;;;0.39;96.52
9462;BME280;4769;42.660;23.262;2023-01-26T03:21:20;94197.41;;;0.34;96.53
9462;BME280;4769;42.660;23.262;2023-01-26T03:24:04;94190.59;;;0.18;96.98
9462;BME280;4769;42.660;23.262;2023-01-26T03:26:48;94194.16;;;0.17;97.08
9462;BME280;4769;42.660;23.262;2023-01-26T03:29:32;94186.41;;;0.17;96.94
9462;BME280;4769;42.660;23.262;2023-01-26T03:31:59;94182.66;;;0.34;96.85
9462;BME280;4769;42.660;23.262;2023-01-26T03:34:28;94189.00;;;0.32;96.02
9462;BME280;4769;42.660;23.262;2023-01-26T03:36:55;94187.03;;;0.34;96.02
9462;BME280;4769;42.660;23.262;2023-01-26T03:39:21;94191.69;;;0.24;97.14
9462;BME280;4769;42.660;23.262;2023-01-26T03:42:06;94192.75;;;0.15;97.77
9462;BME280;4769;42.660;23.262;2023-01-26T03:44:50;94193.00;;;0.20;97.28
9462;BME280;4769;42.660;23.262;2023-01-26T03:47:34;94193.47;;;0.23;96.98
9462;BME280;4769;42.660;23.262;2023-01-26T03:50:21;94185.75;;;0.15;96.99
9462;BME280;4769;42.660;23.262;2023-01-26T03:53:12;94183.53;;;0.13;96.74
9462;BME280;4769;42.660;23.262;2023-01-26T03:55:56;94184.13;;;0.14;96.86
9462;BME280;4769;42.660;23.262;2023-01-26T03:58:40;94180.50;;;0.23;96.44
9462;BME280;4769;42.660;23.262;2023-01-26T04:01:07;94173.56;;;0.01;96.12
9462;BME280;4769;42.660;23.262;2023-01-26T04:03:35;94179.22;;;0.19;96.34
9462;BME280;4769;42.660;23.262;2023-01-26T04:06:20;94164.41;;;0.13;95.96
9462;BME280;4769;42.660;23.262;2023-01-26T04:09:04;94163.88;;;0.32;96.04
9462;BME280;4769;42.660;23.262;2023-01-26T04:11:31;94152.75;;;0.09;95.87
9462;BME280;4769;42.660;23.262;2023-01-26T04:13:58;94156.44;;;0.15;95.84
9462;BME280;4769;42.660;23.262;2023-01-26T04:16:42;94154.53;;;0.09;96.14
9462;BME280;4769;42.660;23.262;2023-01-26T04:19:26;94142.06;;;0.13;96.04
9462;BME280;4769;42.660;23.262;2023-01-26T04:22:11;94129.25;;;0.25;96.11
9462;BME280;4769;42.660;23.262;2023-01-26T04:24:39;94126.22;;;0.22;96.11
9462;BME280;4769;42.660;23.262;2023-01-26T04:27:06;94130.16;;;0.18;96.10
9462;BME280;4769;42.660;23.262;2023-01-26T04:29:33;94120.25;;;0.22;95.74
9462;BME280;4769;42.660;23.262;2023-01-26T04:31:59;94114.59;;;0.18;95.27
9462;BME280;4769;42.660;23.262;2023-01-26T04:34:26;94115.84;;;0.08;95.77
9462;BME280;4769;42.660;23.262;2023-01-26T04:36:53;94119.78;;;0.18;95.27
9462;BME280;4769;42.660;23.262;2023-01-26T04:39:21;94118.56;;;0.14;95.08
9462;BME280;4769;42.660;23.262;2023-01-26T04:41:48;94126.22;;;0.22;94.95
9462;BME280;4769;42.660;23.262;2023-01-26T04:44:15;94137.66;;;0.13;94.37
9462;BME280;4769;42.660;23.262;2023-01-26T04:46:42;94126.59;;;0.19;94.52
9462;BME280;4769;42.660;23.262;2023-01-26T04:49:10;94142.41;;;0.09;94.46
9462;BME280;4769;42.660;23.262;2023-01-26T04:51:37;94142.72;;;0.06;94.69
9462;BME280;4769;42.660;23.262;2023-01-26T04:54:04;94137.69;;;0.28;93.74
9462;BME280;4769;42.660;23.262;2023-01-26T04:56:33;94139.94;;;0.31;92.97
9462;BME280;4769;42.660;23.262;2023-01-26T04:59:02;94145.00;;;0.38;92.22
9462;BME280;4769;42.660;23.262;2023-01-26T05:01:29;94143.06;;;0.41;91.94
9462;BME280;4769;42.660;23.262;2023-01-26T05:03:58;94140.19;;;0.50;92.24
9462;BME280;4769;42.660;23.262;2023-01-26T05:06:25;94128.38;;;0.47;92.03
9462;BME280;4769;42.660;23.262;2023-01-26T05:08:51;94133.56;;;0.47;91.58
9462;BME280;4769;42.660;23.262;2023-01-26T05:11:18;94140.63;;;0.39;92.00
9462;BME280;4769;42.660;23.262;2023-01-26T05:13:47;94133.56;;;0.18;92.34
9462;BME280;4769;42.660;23.262;2023-01-26T05:16:14;94131.34;;;0.30;92.67
9462;BME280;4769;42.660;23.262;2023-01-26T05:18:41;94132.22;;;0.37;92.62
9462;BME280;4769;42.660;23.262;2023-01-26T05:21:10;94126.50;;;0.42;92.31
9462;BME280;4769;42.660;23.262;2023-01-26T05:23:37;94122.31;;;0.41;91.89
9462;BME280;4769;42.660;23.262;2023-01-26T05:26:05;94119.09;;;0.24;91.99
9462;BME280;4769;42.660;23.262;2023-01-26T05:28:32;94121.06;;;0.37;92.24
9462;BME280;4769;42.660;23.262;2023-01-26T05:31:01;94135.44;;;0.53;92.21
9462;BME280;4769;42.660;23.262;2023-01-26T05:33:28;94133.47;;;0.56;91.93
9462;BME280;4769;42.660;23.262;2023-01-26T05:35:55;94131.16;;;0.61;91.35
9462;BME280;4769;42.660;23.262;2023-01-26T05:38:23;94122.75;;;0.59;90.82
9462;BME280;4769;42.660;23.262;2023-01-26T05:40:50;94117.56;;;0.59;90.82
9462;BME280;4769;42.660;23.262;2023-01-26T05:43:17;94116.31;;;0.55;91.15
9462;BME280;4769;42.660;23.262;2023-01-26T05:45:44;94116.19;;;0.63;90.66
9462;BME280;4769;42.660;23.262;2023-01-26T05:48:12;94122.94;;;0.43;91.69
9462;BME280;4769;42.660;23.262;2023-01-26T05:50:39;94127.41;;;0.63;91.44
9462;BME280;4769;42.660;23.262;2023-01-26T05:53:06;94135.44;;;0.68;91.32
9462;BME280;4769;42.660;23.262;2023-01-26T05:55:32;94126.06;;;0.82;90.90
9462;BME280;4769;42.660;23.262;2023-01-26T05:57:59;94127.31;;;0.71;91.13
9462;BME280;4769;42.660;23.262;2023-01-26T06:00:26;94117.97;;;0.77;91.14
9462;BME280;4769;42.660;23.262;2023-01-26T06:02:53;94127.75;;;0.75;90.84
9462;BME280;4769;42.660;23.262;2023-01-26T06:05:21;94129.47;;;0.68;91.14
9462;BME280;4769;42.660;23.262;2023-01-26T06:07:48;94113.44;;;0.64;90.46
9462;BME280;4769;42.660;23.262;2023-01-26T06:10:15;94113.34;;;0.57;91.37
9462;BME280;4769;42.660;23.262;2023-01-26T06:12:42;94102.88;;;0.66;90.88
9462;BME280;4769;42.660;23.262;2023-01-26T06:15:09;94110.41;;;0.75;90.37
9462;BME280;4769;42.660;23.262;2023-01-26T06:17:38;94108.63;;;0.61;90.64
9462;BME280;4769;42.660;23.262;2023-01-26T06:20:05;94118.88;;;0.69;90.66
9462;BME280;4769;42.660;23.262;2023-01-26T06:22:33;94123.38;;;0.75;90.75
9462;BME280;4769;42.660;23.262;2023-01-26T06:25:00;94111.63;;;0.79;91.00
9462;BME280;4769;42.660;23.262;2023-01-26T06:27:27;94112.25;;;0.81;90.54
9462;BME280;4769;42.660;23.262;2023-01-26T06:29:54;94108.25;;;0.79;90.61
9462;BME280;4769;42.660;23.262;2023-01-26T06:32:21;94111.53;;;0.87;90.39
9462;BME280;4769;42.660;23.262;2023-01-26T06:34:47;94087.25;;;0.95;90.06
9462;BME280;4769;42.660;23.262;2023-01-26T06:37:14;94095.22;;;0.93;89.74
9462;BME280;4769;42.660;23.262;2023-01-26T06:39:43;94094.09;;;0.81;90.76
9462;BME280;4769;42.660;23.262;2023-01-26T06:42:10;94093.44;;;0.94;90.53
9462;BME280;4769;42.660;23.262;2023-01-26T06:44:37;94094.69;;;0.98;90.24
9462;BME280;4769;42.660;23.262;2023-01-26T06:47:04;94098.63;;;0.94;90.13
9462;BME280;4769;42.660;23.262;2023-01-26T06:49:31;94084.22;;;0.91;90.16
9462;BME280;4769;42.660;23.262;2023-01-26T06:52:02;94081.97;;;0.88;90.32
9462;BME280;4769;42.660;23.262;2023-01-26T06:54:29;94083.22;;;0.92;89.51
9462;BME280;4769;42.660;23.262;2023-01-26T06:56:58;94086.91;;;0.83;89.88
9462;BME280;4769;42.660;23.262;2023-01-26T06:59:25;94071.59;;;0.88;90.44
9462;BME280;4769;42.660;23.262;2023-01-26T07:01:52;94072.50;;;0.95;89.50
9462;BME280;4769;42.660;23.262;2023-01-26T07:04:19;94058.69;;;0.95;89.49
9462;BME280;4769;42.660;23.262;2023-01-26T07:06:45;94066.13;;;0.98;89.74
9462;BME280;4769;42.660;23.262;2023-01-26T07:09:12;94078.63;;;1.09;89.79
9462;BME280;4769;42.660;23.262;2023-01-26T07:11:39;94065.53;;;1.17;90.09
9462;BME280;4769;42.660;23.262;2023-01-26T07:14:07;94077.53;;;1.39;89.49
9462;BME280;4769;42.660;23.262;2023-01-26T07:16:34;94077.16;;;1.42;88.72
9462;BME280;4769;42.660;23.262;2023-01-26T07:19:01;94076.19;;;1.43;88.79
9462;BME280;4769;42.660;23.262;2023-01-26T07:21:28;94071.59;;;1.24;89.54
9462;BME280;4769;42.660;23.262;2023-01-26T07:23:55;94065.84;;;1.28;88.92
9462;BME280;4769;42.660;23.262;2023-01-26T07:26:22;94059.16;;;1.19;89.51
9462;BME280;4769;42.660;23.262;2023-01-26T07:28:49;94055.50;;;1.14;90.12
9462;BME280;4769;42.660;23.262;2023-01-26T07:31:17;94055.69;;;1.33;89.22
9462;BME280;4769;42.660;23.262;2023-01-26T07:33:44;94064.91;;;1.36;89.49
9462;BME280;4769;42.660;23.262;2023-01-26T07:36:11;94058.66;;;1.51;89.13
9462;BME280;4769;42.660;23.262;2023-01-26T07:38:37;94050.69;;;1.53;87.60
9462;BME280;4769;42.660;23.262;2023-01-26T07:41:06;94036.63;;;1.47;87.73
9462;BME280;4769;42.660;23.262;2023-01-26T07:43:35;94038.31;;;1.55;87.37
9462;BME280;4769;42.660;23.262;2023-01-26T07:46:02;94051.88;;;1.50;87.05
9462;BME280;4769;42.660;23.262;2023-01-26T07:48:30;94037.09;;;1.30;87.98
9462;BME280;4769;42.660;23.262;2023-01-26T07:50:59;94033.91;;;1.55;87.77
9462;BME280;4769;42.660;23.262;2023-01-26T07:53:26;94056.47;;;1.76;86.69
9462;BME280;4769;42.660;23.262;2023-01-26T07:56:04;94048.28;;;1.79;85.98
9462;BME280;4769;42.660;23.262;2023-01-26T07:58:31;94052.28;;;1.81;85.54
9462;BME280;4769;42.660;23.262;2023-01-26T08:01:04;94051.41;;;1.68;86.39
9462;BME280;4769;42.660;23.262;2023-01-26T08:03:32;94040.63;;;1.71;85.73
9462;BME280;4769;42.660;23.262;2023-01-26T08:05:59;94043.28;;;1.77;86.01
9462;BME280;4769;42.660;23.262;2023-01-26T08:08:26;94033.91;;;1.83;85.20
9462;BME280;4769;42.660;23.262;2023-01-26T08:10:55;94044.53;;;1.88;85.30
9462;BME280;4769;42.660;23.262;2023-01-26T08:13:25;94046.53;;;1.86;85.43
9462;BME280;4769;42.660;23.262;2023-01-26T08:15:51;94037.03;;;1.99;85.68
9462;BME280;4769;42.660;23.262;2023-01-26T08:18:18;94038.56;;;1.87;85.12
9462;BME280;4769;42.660;23.262;2023-01-26T08:20:51;94034.66;;;2.04;85.61
9462;BME280;4769;42.660;23.262;2023-01-26T08:23:18;94028.16;;;1.87;85.12
9462;BME280;4769;42.660;23.262;2023-01-26T08:25:45;94024.50;;;2.09;85.58
9462;BME280;4769;42.660;23.262;2023-01-26T08:28:12;94023.56;;;2.17;84.74
9462;BME280;4769;42.660;23.262;2023-01-26T08:30:39;94030.34;;;2.18;84.99
9462;BME280;4769;42.660;23.262;2023-01-26T08:33:06;94011.97;;;2.19;84.40
9462;BME280;4769;42.660;23.262;2023-01-26T08:35:33;94012.97;;;1.91;84.48
9462;BME280;4769;42.660;23.262;2023-01-26T08:38:02;94013.81;;;1.98;84.64
9462;BME280;4769;42.660;23.262;2023-01-26T08:40:28;94007.88;;;2.04;84.35
9462;BME280;4769;42.660;23.262;2023-01-26T08:42:58;94005.38;;;1.89;85.26
9462;BME280;4769;42.660;23.262;2023-01-26T08:45:27;93996.38;;;1.92;86.00
9462;BME280;4769;42.660;23.262;2023-01-26T08:47:54;94015.50;;;2.05;85.39
9462;BME280;4769;42.660;23.262;2023-01-26T08:50:21;94022.06;;;2.01;84.99
9462;BME280;4769;42.660;23.262;2023-01-26T08:52:48;94023.69;;;2.09;84.71
9462;BME280;4769;42.660;23.262;2023-01-26T08:55:16;94038.69;;;2.07;83.32
9462;BME280;4769;42.660;23.262;2023-01-26T08:57:43;94027.75;;;2.18;84.74
9462;BME280;4769;42.660;23.262;2023-01-26T09:00:12;94017.13;;;2.13;83.79
9462;BME280;4769;42.660;23.262;2023-01-26T09:02:39;94007.56;;;2.20;84.14
9462;BME280;4769;42.660;23.262;2023-01-26T09:05:07;94014.66;;;2.39;83.25
9462;BME280;4769;42.660;23.262;2023-01-26T09:07:34;94027.84;;;2.37;83.27
9462;BME280;4769;42.660;23.262;2023-01-26T09:10:01;94022.06;;;2.42;82.71
9462;BME280;4769;42.660;23.262;2023-01-26T09:12:29;94024.69;;;2.42;81.91
9462;BME280;4769;42.660;23.262;2023-01-26T09:14:56;94006.03;;;2.32;82.33
9462;BME280;4769;42.660;23.262;2023-01-26T09:17:23;94002.03;;;2.36;82.50
9462;BME280;4769;42.660;23.262;2023-01-26T09:19:50;94005.41;;;2.30;82.72
9462;BME280;4769;42.660;23.262;2023-01-26T09:22:17;93998.16;;;2.19;83.74
9462;BME280;4769;42.660;23.262;2023-01-26T09:24:43;94005.81;;;2.27;83.31
9462;BME280;4769;42.660;23.262;2023-01-26T09:27:10;93999.78;;;2.26;83.43
9462;BME280;4769;42.660;23.262;2023-01-26T09:29:38;93994.44;;;2.34;81.96
9462;BME280;4769;42.660;23.262;2023-01-26T09:32:05;93984.72;;;2.15;82.22
9462;BME280;4769;42.660;23.262;2023-01-26T09:34:32;93972.78;;;2.27;83.37
9462;BME280;4769;42.660;23.262;2023-01-26T09:36:59;93968.81;;;2.38;83.16
9462;BME280;4769;42.660;23.262;2023-01-26T09:39:26;93972.63;;;2.35;82.55
9462;BME280;4769;42.660;23.262;2023-01-26T09:42:04;93983.63;;;2.37;83.08
9462;BME280;4769;42.660;23.262;2023-01-26T09:44:50;93980.72;;;2.60;82.66
9462;BME280;4769;42.660;23.262;2023-01-26T09:47:24;93984.09;;;2.60;83.18
9462;BME280;4769;42.660;23.262;2023-01-26T09:49:58;93958.66;;;2.49;82.46
9462;BME280;4769;42.660;23.262;2023-01-26T09:52:30;93947.56;;;2.28;83.38
9462;BME280;4769;42.660;23.262;2023-01-26T09:55:01;93942.59;;;2.33;83.64
9462;BME280;4769;42.660;23.262;2023-01-26T09:57:35;93950.03;;;2.49;83.68
9462;BME280;4769;42.660;23.262;2023-01-26T10:00:07;93949.66;;;2.52;83.07
9462;BME280;4769;42.660;23.262;2023-01-26T10:02:47;93961.25;;;2.49;83.12
9462;BME280;4769;42.660;23.262;2023-01-26T10:05:21;93946.88;;;2.60;83.43
9462;BME280;4769;42.660;23.262;2023-01-26T10:07:52;93957.44;;;2.45;83.46
9462;BME280;4769;42.660;23.262;2023-01-26T10:10:31;93955.59;;;2.33;83.77
9462;BME280;4769;42.660;23.262;2023-01-26T10:13:00;93950.22;;;2.41;84.30
9462;BME280;4769;42.660;23.262;2023-01-26T10:15:31;93945.63;;;2.43;83.15
9462;BME280;4769;42.660;23.262;2023-01-26T10:18:06;93937.25;;;2.54;83.05
9462;BME280;4769;42.660;23.262;2023-01-26T10:20:35;93930.50;;;2.79;82.69
9462;BME280;4769;42.660;23.262;2023-01-26T10:23:05;93920.69;;;2.81;81.54
9462;BME280;4769;42.660;23.262;2023-01-26T10:25:38;93913.28;;;2.78;82.10
9462;BME280;4769;42.660;23.262;2023-01-26T10:28:11;93907.66;;;2.68;82.36
9462;BME280;4769;42.660;23.262;2023-01-26T10:30:42;93892.66;;;2.70;81.54
9462;BME280;4769;42.660;23.262;2023-01-26T10:33:13;93893.66;;;2.69;82.19
9462;BME280;4769;42.660;23.262;2023-01-26T10:35:41;93872.44;;;2.59;82.10
9462;BME280;4769;42.660;23.262;2023-01-26T10:41:22;93861.22;;;2.78;81.03
9462;BME280;4769;42.660;23.262;2023-01-26T10:43:52;93847.81;;;2.61;81.12
9462;BME280;4769;42.660;23.262;2023-01-26T10:46:27;93841.16;;;2.46;82.19
9462;BME280;4769;42.660;23.262;2023-01-26T10:48:57;93843.97;;;2.44;82.94
9462;BME280;4769;42.660;23.262;2023-01-26T10:51:27;93840.59;;;2.63;82.66
9462;BME280;4769;42.660;23.262;2023-01-26T10:54:18;93833.38;;;2.72;81.73
9462;BME280;4769;42.660;23.262;2023-01-26T10:56:46;93829.78;;;2.73;81.74
9462;BME280;4769;42.660;23.262;2023-01-26T11:02:02;93818.75;;;2.71;81.63
9462;BME280;4769;42.660;23.262;2023-01-26T11:05:00;93806.56;;;2.71;80.97
9462;BME280;4769;42.660;23.262;2023-01-26T11:07:31;93802.75;;;2.80;81.28
9462;BME280;4769;42.660;23.262;2023-01-26T11:10:16;93793.94;;;2.68;81.33
9462;BME280;4769;42.660;23.262;2023-01-26T11:12:44;93802.34;;;2.77;81.36
9462;BME280;4769;42.660;23.262;2023-01-26T11:15:16;93786.53;;;2.52;81.34
9462;BME280;4769;42.660;23.262;2023-01-26T11:17:50;93786.53;;;2.59;82.59
9462;BME280;4769;42.660;23.262;2023-01-26T11:23:21;93776.31;;;2.83;81.63
9462;BME280;4769;42.660;23.262;2023-01-26T11:28:57;93762.47;;;2.96;81.05
9462;BME280;4769;42.660;23.262;2023-01-26T11:31:35;93771.91;;;2.84;80.95
9462;BME280;4769;42.660;23.262;2023-01-26T11:34:15;93758.69;;;2.72;82.18
9462;BME280;4769;42.660;23.262;2023-01-26T11:36:53;93772.69;;;3.04;80.88
9462;BME280;4769;42.660;23.262;2023-01-26T11:39:27;93765.25;;;3.07;81.71
9462;BME280;4769;42.660;23.262;2023-01-26T11:42:12;93762.06;;;2.99;80.86
9462;BME280;4769;42.660;23.262;2023-01-26T11:44:49;93755.84;;;3.13;81.18
9462;BME280;4769;42.660;23.262;2023-01-26T11:47:45;93749.22;;;3.10;81.57
9462;BME280;4769;42.660;23.262;2023-01-26T11:50:28;93760.19;;;3.32;80.62
9462;BME280;4769;42.660;23.262;2023-01-26T11:53:13;93740.38;;;3.18;80.22
9462;BME280;4769;42.660;23.262;2023-01-26T11:55:53;93755.66;;;2.88;82.07
9462;BME280;4769;42.660;23.262;2023-01-26T11:58:31;93755.28;;;2.91;82.79
9462;BME280;4769;42.660;23.262;2023-01-26T12:01:03;93747.47;;;2.91;82.53
9462;BME280;4769;42.660;23.262;2023-01-26T12:03:38;93741.88;;;2.88;81.70
9462;BME280;4769;42.660;23.262;2023-01-26T12:06:17;93734.47;;;2.85;82.33
9462;BME280;4769;42.660;23.262;2023-01-26T12:08:49;93720.69;;;2.65;83.96
9462;BME280;4769;42.660;23.262;2023-01-26T12:11:22;93711.22;;;2.77;83.46
9462;BME280;4769;42.660;23.262;2023-01-26T12:14:15;93719.22;;;2.82;83.11
9462;BME280;4769;42.660;23.262;2023-01-26T12:16:56;93701.63;;;2.71;83.67
9462;BME280;4769;42.660;23.262;2023-01-26T12:19:37;93703.03;;;2.80;83.74
9462;BME280;4769;42.660;23.262;2023-01-26T12:22:13;93701.25;;;2.61;84.66
9462;BME280;4769;42.660;23.262;2023-01-26T12:24:50;93675.84;;;2.50;85.18
9462;BME280;4769;42.660;23.262;2023-01-26T12:27:24;93669.47;;;2.39;85.15
9462;BME280;4769;42.660;23.262;2023-01-26T12:29:57;93664.44;;;2.57;85.95
9462;BME280;4769;42.660;23.262;2023-01-26T12:32:27;93657.03;;;2.48;85.67
9462;BME280;4769;42.660;23.262;2023-01-26T12:34:54;93663.63;;;2.57;86.23
9462;BME280;4769;42.660;23.262;2023-01-26T12:37:33;93651.63;;;2.49;85.86
9462;BME280;4769;42.660;23.262;2023-01-26T12:40:13;93658.63;;;2.55;86.54
9462;BME280;4769;42.660;23.262;2023-01-26T12:42:45;93659.25;;;2.44;87.10
9462;BME280;4769;42.660;23.262;2023-01-26T12:45:17;93654.03;;;2.38;87.02
9462;BME280;4769;42.660;23.262;2023-01-26T12:47:48;93654.66;;;2.33;87.51
9462;BME280;4769;42.660;23.262;2023-01-26T12:50:23;93668.63;;;2.52;86.97
9462;BME280;4769;42.660;23.262;2023-01-26T12:52:55;93664.66;;;2.43;87.11
9462;BME280;4769;42.660;23.262;2023-01-26T12:55:28;93655.81;;;2.57;87.40
9462;BME280;4769;42.660;23.262;2023-01-26T12:58:00;93658.41;;;2.57;86.78
9462;BME280;4769;42.660;23.262;2023-01-26T13:00:30;93653.41;;;2.55;87.00
9462;BME280;4769;42.660;23.262;2023-01-26T13:03:00;93657.22;;;2.53;88.10
9462;BME280;4769;42.660;23.262;2023-01-26T13:05:30;93652.44;;;2.50;88.44
9462;BME280;4769;42.660;23.262;2023-01-26T13:08:39;93652.03;;;2.53;88.44
9462;BME280;4769;42.660;23.262;2023-01-26T13:11:41;93653.41;;;2.62;88.54
9462;BME280;4769;42.660;23.262;2023-01-26T13:14:57;93654.22;;;2.69;87.76
9462;BME280;4769;42.660;23.262;2023-01-26T13:17:51;93662.75;;;2.95;87.54
9462;BME280;4769;42.660;23.262;2023-01-26T13:26:50;93650.94;;;2.93;87.24
9462;BME280;4769;42.660;23.262;2023-01-26T13:29:27;93641.75;;;2.84;87.16
9462;BME280;4769;42.660;23.262;2023-01-26T13:31:57;93644.91;;;2.92;87.40
9462;BME280;4769;42.660;23.262;2023-01-26T13:34:27;93634.53;;;2.86;87.36
9462;BME280;4769;42.660;23.262;2023-01-26T13:36:58;93646.13;;;2.90;88.01
9462;BME280;4769;42.660;23.262;2023-01-26T13:39:31;93627.69;;;2.98;87.23
9462;BME280;4769;42.660;23.262;2023-01-26T13:42:02;93630.50;;;2.90;87.70
9462;BME280;4769;42.660;23.262;2023-01-26T13:44:44;93629.66;;;2.96;87.38
9462;BME280;4769;42.660;23.262;2023-01-26T13:47:16;93619.72;;;2.80;87.23
9462;BME280;4769;42.660;23.262;2023-01-26T13:49:43;93625.50;;;2.82;87.51
9462;BME280;4769;42.660;23.262;2023-01-26T13:52:16;93628.16;;;2.75;88.89
9462;BME280;4769;42.660;23.262;2023-01-26T13:54:44;93631.56;;;2.69;88.58
9462;BME280;4769;42.660;23.262;2023-01-26T13:57:20;93617.78;;;2.69;89.04
9462;BME280;4769;42.660;23.262;2023-01-26T13:59:48;93619.19;;;2.65;89.33
9462;BME280;4769;42.660;23.262;2023-01-26T14:02:23;93622.34;;;2.73;88.60